Time;durP1;ratioP1;P1;durP2;ratioP2;P2;SDS_P1;SDS_P2;PMS_P1;PMS_P2;Temp;Humidity;BMP_temperature;BMP_pressure;BME280_temperature;BME280_humidity;BME280_pressure;Samples;Min_cycle;Max_cycle;Signal;HPM_P1;HPM_P2
2022/03/10 00:02:19;;;;;;;12.40;9.10;;;11.90;70.00;;;13.04;36.48;101960.44;4886971;28;97543;-51
2022/03/10 00:04:46;;;;;;;12.63;10.47;;;12.00;68.70;;;13.05;36.32;101967.47;4884140;28;110111;-53
2022/03/10 00:07:12;;;;;;;7.77;6.97;;;11.90;67.80;;;13.00;36.34;101972.84;4884838;28;99164;-55
2022/03/10 00:09:47;;;;;;;17.17;12.73;;;11.80;67.70;;;13.01;35.47;101981.66;4885580;28;97088;-51
2022/03/10 00:12:59;;;;;;;7.10;6.40;;;11.80;67.40;;;13.02;36.45;101988.75;4828435;28;103324;-52
2022/03/10 00:15:25;;;;;;;7.63;6.13;;;11.80;70.00;;;13.00;36.39;101982.59;4886061;28;101012;-54
2022/03/10 00:17:52;;;;;;;8.80;6.67;;;11.80;70.60;;;13.03;36.46;101980.75;4865176;28;97481;-54
2022/03/10 00:20:20;;;;;;;9.03;7.73;;;11.90;68.70;;;13.05;36.29;101978.06;4889497;28;97325;-51
2022/03/10 00:22:50;;;;;;;7.07;6.13;;;12.00;69.20;;;13.00;36.36;101979.94;4884822;28;96996;-49
2022/03/10 00:25:24;;;;;;;7.40;6.43;;;11.90;69.10;;;13.03;36.26;101982.53;4872650;28;97823;-55
2022/03/10 00:27:51;;;;;;;7.53;5.87;;;11.90;69.40;;;13.06;36.07;101978.03;4845185;28;96978;-60
2022/03/10 00:30:17;;;;;;;7.50;5.77;;;12.00;70.90;;;13.14;36.15;101967.22;4882242;28;97369;-53
2022/03/10 00:32:49;;;;;;;6.23;5.63;;;12.20;70.60;;;13.27;35.84;101979.28;4878660;28;99057;-58
2022/03/10 00:35:19;;;;;;;6.63;5.93;;;12.50;69.10;;;13.36;35.75;101967.56;4864940;28;100362;-56
2022/03/10 00:37:47;;;;;;;5.93;5.17;;;12.60;70.40;;;13.48;35.37;101971.69;4859740;28;97167;-58
2022/03/10 00:40:14;;;;;;;6.70;6.00;;;12.80;69.80;;;13.62;35.05;101974.84;4882373;28;97912;-58
2022/03/10 00:42:41;;;;;;;6.90;6.03;;;13.10;68.30;;;13.72;34.98;101971.00;4887494;28;98041;-51
2022/03/10 00:45:08;;;;;;;7.00;6.30;;;13.20;67.70;;;13.81;34.74;101976.03;4885242;28;101268;-50
2022/03/10 00:47:35;;;;;;;7.53;6.17;;;13.30;67.60;;;13.89;34.65;101979.38;4889549;28;97278;-54
2022/03/10 00:50:02;;;;;;;8.40;6.20;;;13.40;65.70;;;13.94;34.30;101982.75;4884779;28;96888;-56
2022/03/10 00:52:28;;;;;;;9.07;7.53;;;13.50;67.40;;;13.91;34.33;101984.63;4867764;28;97386;-56
2022/03/10 00:55:27;;;;;;;9.10;7.70;;;13.30;63.50;;;13.79;34.17;101992.94;4883836;28;98660;-56
2022/03/10 00:58:10;;;;;;;13.80;12.17;;;13.00;63.50;;;13.62;34.58;101998.69;4858452;28;103231;-50
2022/03/10 01:00:35;;;;;;;12.80;10.53;;;12.60;63.90;;;13.48;34.97;102000.84;4893697;28;97949;-53
2022/03/10 01:03:01;;;;;;;12.23;9.43;;;12.30;66.20;;;13.32;35.44;102003.91;4892843;28;98523;-53
2022/03/10 01:05:27;;;;;;;12.67;9.30;;;12.10;67.70;;;13.20;35.56;101993.59;4892715;28;120260;-50
2022/03/10 01:07:53;;;;;;;12.03;9.70;;;12.00;66.40;;;13.13;35.48;102002.56;4895306;28;96993;-52
2022/03/10 01:10:19;;;;;;;8.80;6.50;;;11.90;67.70;;;13.05;36.14;102005.44;4898464;28;97297;-54
2022/03/10 01:12:45;;;;;;;9.63;7.90;;;11.80;68.50;;;12.95;36.10;102003.03;4883356;28;96997;-51
2022/03/10 01:15:16;;;;;;;12.93;10.73;;;11.70;67.60;;;12.88;36.13;102001.44;4878350;28;97376;-56
2022/03/10 01:17:44;;;;;;;11.53;9.40;;;11.60;69.10;;;12.79;36.20;101998.09;4897138;28;99608;-59
2022/03/10 01:20:11;;;;;;;11.90;9.43;;;11.50;69.50;;;12.76;36.50;101998.19;4889640;28;97288;-56
2022/03/10 01:22:37;;;;;;;11.83;9.87;;;11.50;68.60;;;12.67;36.59;101994.88;4896423;28;97871;-55
2022/03/10 01:25:11;;;;;;;14.10;10.97;;;11.40;69.20;;;12.58;36.69;101993.28;4892776;28;96930;-52
2022/03/10 01:27:46;;;;;;;16.07;12.77;;;11.20;68.80;;;12.51;36.74;102002.28;4897698;28;97095;-50
2022/03/10 01:30:13;;;;;;;11.57;9.27;;;11.20;69.30;;;12.44;37.05;101995.38;4892408;28;98758;-54
2022/03/10 01:32:39;;;;;;;9.10;8.03;;;11.10;71.10;;;12.31;37.30;101993.94;4898497;28;97579;-56
2022/03/10 01:35:06;;;;;;;6.93;6.17;;;11.00;70.20;;;12.28;37.44;101993.97;4894708;28;99468;-54
2022/03/10 01:37:36;;;;;;;7.37;6.20;;;11.00;72.30;;;12.27;37.48;101989.59;4899118;28;97900;-55
2022/03/10 01:40:15;;;;;;;7.63;6.63;;;10.90;72.40;;;12.34;37.35;101988.56;4879209;28;99290;-53
2022/03/10 01:42:41;;;;;;;7.83;6.27;;;11.10;73.10;;;12.38;37.41;101984.94;4899256;28;97514;-52
2022/03/10 01:45:09;;;;;;;11.80;8.77;;;11.20;73.00;;;12.43;37.44;101978.63;4878672;28;103383;-53
2022/03/10 01:47:36;;;;;;;10.63;8.40;;;11.30;71.70;;;12.49;37.28;101977.63;4896577;28;97545;-51
2022/03/10 01:50:03;;;;;;;7.90;6.37;;;11.30;69.90;;;12.48;37.39;101979.41;4893174;28;97902;-55
2022/03/10 01:52:29;;;;;;;14.70;11.37;;;11.30;71.20;;;12.48;37.13;101970.59;4904664;28;98591;-51
2022/03/10 01:54:56;;;;;;;12.93;11.57;;;11.30;70.20;;;12.50;36.88;101982.88;4896465;28;125221;-54
2022/03/10 01:57:25;;;;;;;8.67;7.43;;;11.30;69.30;;;12.48;37.46;101975.91;4886207;28;96991;-53
2022/03/10 01:59:54;;;;;;;10.23;8.47;;;11.10;70.50;;;12.43;37.40;101978.63;4830716;28;97152;-58
2022/03/10 02:02:19;;;;;;;8.00;5.90;;;11.10;71.30;;;12.42;37.61;101981.31;4860856;28;97140;-52
2022/03/10 02:04:45;;;;;;;7.90;6.70;;;11.10;72.90;;;12.50;37.36;101984.66;4894449;28;98428;-52
2022/03/10 02:10:18;;;;;;;11.87;9.03;;;11.30;70.70;;;12.54;37.40;101981.03;4876428;28;96821;-58
2022/03/10 02:12:55;;;;;;;7.33;6.47;;;11.30;70.60;;;12.50;37.53;101974.06;4904739;28;97174;-56
2022/03/10 02:18:09;;;;;;;9.40;8.10;;;11.20;70.80;;;12.49;37.54;101967.03;4899161;28;97337;-54
2022/03/10 02:20:37;;;;;;;8.10;7.30;;;11.20;71.70;;;12.46;37.35;101972.41;4901239;28;97057;-53
2022/03/10 02:23:04;;;;;;;8.93;6.50;;;11.10;70.40;;;12.49;37.57;101974.97;4896213;28;98895;-55
2022/03/10 02:25:42;;;;;;;11.93;10.07;;;11.20;72.80;;;12.47;37.40;101976.81;4902081;28;97055;-54
2022/03/10 02:28:13;;;;;;;13.80;10.97;;;11.20;70.70;;;12.50;37.29;101974.06;4874695;28;96742;-50
2022/03/10 02:30:39;;;;;;;7.63;6.83;;;11.20;70.30;;;12.44;37.64;101975.09;4896575;28;97006;-51
2022/03/10 02:33:06;;;;;;;7.27;6.47;;;11.10;71.30;;;12.40;37.68;101977.81;4899243;28;96965;-52
2022/03/10 02:35:32;;;;;;;8.87;7.57;;;11.00;71.40;;;12.40;37.68;101978.69;4895423;28;96953;-53
2022/03/10 02:37:58;;;;;;;8.57;6.77;;;11.00;72.80;;;12.41;37.77;101974.28;4878848;28;97468;-52
2022/03/10 02:40:25;;;;;;;7.20;6.07;;;11.10;73.00;;;12.43;37.81;101980.41;4899386;28;97224;-52
2022/03/10 02:42:52;;;;;;;9.00;6.97;;;11.10;73.90;;;12.48;37.46;101981.19;4833198;28;99362;-57
2022/03/10 02:45:17;;;;;;;9.27;7.93;;;11.30;72.60;;;12.54;37.38;101975.75;4862260;28;102825;-51
2022/03/10 02:47:43;;;;;;;10.27;8.00;;;11.40;71.30;;;12.57;37.44;101980.97;4889390;28;97687;-59
2022/03/10 02:50:09;;;;;;;5.87;5.27;;;11.40;71.00;;;12.61;37.25;101977.34;4897816;28;124624;-53
2022/03/10 02:52:37;;;;;;;7.37;6.37;;;11.50;72.80;;;12.60;37.01;101975.63;4900200;28;97431;-51
2022/03/10 02:55:06;;;;;;;6.67;5.80;;;11.50;70.20;;;12.62;37.03;101972.94;4894142;28;98215;-51
2022/03/10 02:57:32;;;;;;;8.60;7.47;;;11.40;71.60;;;12.56;37.06;101978.34;4873323;28;97294;-52
2022/03/10 03:00:00;;;;;;;11.57;9.27;;;11.30;70.30;;;12.58;36.95;101971.25;4845409;28;96873;-56
2022/03/10 03:02:27;;;;;;;9.57;8.47;;;11.30;71.40;;;12.50;37.05;101980.25;4844622;28;98591;-51
2022/03/10 03:04:53;;;;;;;7.70;6.20;;;11.20;70.80;;;12.49;37.32;101972.34;4896528;28;103194;-51
2022/03/10 03:07:18;;;;;;;6.37;5.77;;;11.10;72.80;;;12.45;37.35;101960.09;4898683;28;97325;-52
2022/03/10 03:09:44;;;;;;;10.57;8.33;;;11.10;72.30;;;12.46;37.42;101970.63;4900901;28;120550;-55
2022/03/10 03:12:10;;;;;;;7.07;6.23;;;11.20;71.30;;;12.47;37.30;101968.84;4899458;28;104075;-51
2022/03/10 03:14:36;;;;;;;6.00;5.40;;;11.20;73.20;;;12.46;37.33;101969.78;4902159;28;115776;-50
2022/03/10 03:17:02;;;;;;;14.50;12.13;;;11.20;72.60;;;12.46;37.21;101968.00;4879854;28;97438;-49
2022/03/10 03:19:28;;;;;;;11.77;10.50;;;11.20;70.60;;;12.44;37.33;101971.56;4884188;28;97540;-50
2022/03/10 03:21:54;;;;;;;16.00;11.17;;;11.10;70.40;;;12.38;37.31;101963.75;4880065;28;98126;-51
2022/03/10 03:24:20;;;;;;;13.37;11.17;;;11.00;70.60;;;12.34;37.47;101977.97;4900918;28;97000;-50
2022/03/10 03:26:46;;;;;;;8.03;7.23;;;11.00;70.80;;;12.30;37.58;101971.03;4892995;28;96860;-52
2022/03/10 03:29:12;;;;;;;6.00;5.33;;;10.90;72.20;;;12.28;37.75;101972.81;4899621;28;110580;-51
2022/03/10 03:31:38;;;;;;;11.47;9.40;;;10.90;73.90;;;12.30;37.75;101977.19;4896403;28;98665;-51
2022/03/10 03:34:10;;;;;;;6.30;5.67;;;11.00;71.60;;;12.34;37.62;101972.69;4897304;28;121075;-52
2022/03/10 03:36:40;;;;;;;10.57;8.93;;;11.00;72.10;;;12.37;37.31;101969.97;4895040;28;97154;-53
2022/03/10 03:39:06;;;;;;;7.93;6.80;;;11.10;70.90;;;12.30;37.62;101976.31;4895842;28;96971;-52
2022/03/10 03:41:32;;;;;;;10.90;9.33;;;11.00;72.50;;;12.33;37.49;101977.09;4896885;28;97411;-51
2022/03/10 03:43:59;;;;;;;9.50;8.23;;;11.00;71.50;;;12.35;37.69;101969.13;4895340;28;98493;-51
2022/03/10 03:46:24;;;;;;;9.83;7.77;;;11.10;72.50;;;12.28;37.64;101973.66;4881715;28;97275;-51
2022/03/10 03:48:50;;;;;;;7.67;6.87;;;11.00;72.30;;;12.30;37.62;101971.03;4878230;28;97092;-51
2022/03/10 03:51:16;;;;;;;9.50;7.67;;;10.90;72.10;;;12.28;37.75;101968.38;4875683;28;98768;-50
2022/03/10 03:53:42;;;;;;;10.33;8.13;;;10.90;71.80;;;12.29;37.88;101975.41;4900084;28;96782;-51
2022/03/10 03:56:07;;;;;;;13.07;10.30;;;10.90;72.30;;;12.26;37.75;101974.63;4894558;28;97211;-51
2022/03/10 03:58:33;;;;;;;12.27;10.40;;;10.90;71.50;;;12.25;38.01;101980.81;4899533;28;113378;-52
2022/03/10 04:00:59;;;;;;;9.47;7.57;;;10.90;71.60;;;12.23;38.19;101979.97;4895441;28;97633;-51
2022/03/10 04:03:25;;;;;;;8.83;7.67;;;10.80;72.50;;;12.18;38.05;101983.59;4899161;28;121218;-52
2022/03/10 04:05:51;;;;;;;10.07;8.83;;;10.70;72.20;;;12.21;38.09;101987.94;4896373;28;113033;-52
2022/03/10 04:08:17;;;;;;;9.23;8.27;;;10.80;72.90;;;12.13;38.25;101980.16;4878227;28;97801;-50
2022/03/10 04:10:42;;;;;;;8.53;7.60;;;10.70;73.20;;;12.13;38.24;101989.88;4895069;28;109245;-59
2022/03/10 04:13:15;;;;;;;12.73;9.97;;;10.70;72.90;;;12.11;38.17;101987.25;4892745;28;125996;-52
2022/03/10 04:15:41;;;;;;;6.37;5.67;;;10.60;72.40;;;12.12;38.29;101993.41;4894818;28;100489;-53
2022/03/10 04:18:07;;;;;;;8.93;7.63;;;10.70;73.70;;;12.12;38.35;101994.28;4896362;28;117458;-52
2022/03/10 04:20:33;;;;;;;7.40;6.63;;;10.70;72.90;;;12.08;38.34;101989.97;4896409;28;122851;-50
2022/03/10 04:22:59;;;;;;;7.60;6.90;;;10.60;74.50;;;12.12;38.12;101988.13;4885083;28;122460;-52
2022/03/10 04:25:25;;;;;;;6.93;6.20;;;10.70;73.10;;;12.14;38.11;102003.06;4880633;28;97146;-51
2022/03/10 04:27:53;;;;;;;9.70;6.67;;;10.80;73.00;;;12.13;38.19;102006.63;4895517;28;97034;-51
2022/03/10 04:30:22;;;;;;;9.67;7.77;;;10.80;72.90;;;12.15;38.07;101999.53;4897002;28;97851;-52
2022/03/10 04:32:49;;;;;;;8.63;7.30;;;10.80;72.00;;;12.19;37.75;102000.34;4891804;28;98450;-50
2022/03/10 04:35:17;;;;;;;7.57;6.73;;;10.90;72.50;;;12.21;37.86;102002.03;4898031;28;97233;-54
2022/03/10 04:37:48;;;;;;;6.67;5.97;;;10.90;72.40;;;12.23;37.78;102006.44;4890169;28;98853;-54
2022/03/10 04:40:13;;;;;;;7.50;6.60;;;11.00;72.10;;;12.25;37.75;102004.63;4879160;28;104316;-53
2022/03/10 04:42:39;;;;;;;9.60;8.33;;;10.90;72.50;;;12.28;37.72;102009.84;4884905;28;113737;-53
2022/03/10 04:45:08;;;;;;;10.37;7.70;;;11.00;71.60;;;12.26;37.76;102012.53;4897000;28;96914;-54
2022/03/10 04:47:35;;;;;;;10.73;8.77;;;11.00;72.20;;;12.25;37.79;102004.63;4894099;28;97061;-55
2022/03/10 04:50:02;;;;;;;7.17;6.43;;;10.90;73.00;;;12.24;37.88;102009.03;4885284;28;97461;-52
2022/03/10 04:52:29;;;;;;;8.13;6.23;;;10.90;73.60;;;12.27;37.69;101998.38;4881051;28;97467;-52
2022/03/10 04:54:55;;;;;;;10.97;8.73;;;11.00;73.30;;;12.31;37.74;102007.16;4880444;28;97247;-55
2022/03/10 04:57:21;;;;;;;9.33;7.50;;;11.10;72.50;;;12.34;37.48;101993.84;4898580;28;114629;-57
2022/03/10 04:59:48;;;;;;;9.47;7.77;;;11.10;71.30;;;12.32;37.75;101996.53;4895345;28;102266;-47
2022/03/10 05:02:14;;;;;;;12.03;8.93;;;11.00;72.20;;;12.32;37.53;101995.66;4871689;28;97119;-54
2022/03/10 05:04:40;;;;;;;15.23;12.47;;;11.00;71.00;;;12.23;37.39;102006.44;4894821;28;123563;-53
2022/03/10 05:07:05;;;;;;;9.90;7.60;;;10.90;71.40;;;12.18;37.97;102009.19;4892290;28;98480;-58
2022/03/10 05:09:32;;;;;;;8.63;6.47;;;10.80;73.00;;;12.15;38.05;102010.13;4881742;28;98693;-56
2022/03/10 05:11:57;;;;;;;6.43;5.80;;;10.70;73.90;;;12.12;38.48;102014.59;4885356;28;97050;-57
2022/03/10 05:14:24;;;;;;;8.67;7.43;;;10.70;73.30;;;12.14;38.28;102011.00;4880731;28;98150;-57
2022/03/10 05:16:50;;;;;;;9.00;7.60;;;10.70;74.20;;;12.19;38.20;102017.09;4895809;28;97585;-56
2022/03/10 05:19:16;;;;;;;9.93;7.23;;;10.90;73.90;;;12.26;38.09;102016.94;4890562;28;99275;-57
2022/03/10 05:21:42;;;;;;;10.43;7.40;;;11.00;73.30;;;12.26;37.94;102016.94;4881316;28;96817;-58
2022/03/10 05:24:09;;;;;;;7.83;6.70;;;11.00;72.20;;;12.32;37.95;102019.47;4877518;28;98216;-57
2022/03/10 05:26:34;;;;;;;9.47;8.33;;;11.10;72.90;;;12.31;37.98;102020.38;4898816;28;97351;-56
2022/03/10 05:29:00;;;;;;;7.73;6.93;;;11.00;72.60;;;12.33;37.70;102018.56;4888561;28;122506;-54
2022/03/10 05:31:28;;;;;;;6.93;5.67;;;11.10;72.80;;;12.35;37.65;102028.22;4895004;28;97308;-51
2022/03/10 05:33:54;;;;;;;9.70;7.67;;;11.10;73.30;;;12.33;37.73;102021.22;4894876;28;96916;-54
2022/03/10 05:36:20;;;;;;;9.10;7.83;;;11.10;73.20;;;12.36;37.66;102018.50;4897620;28;114205;-54
2022/03/10 05:38:46;;;;;;;7.13;6.43;;;11.10;72.80;;;12.39;37.59;102023.72;4891704;28;117897;-54
2022/03/10 05:41:12;;;;;;;8.00;6.40;;;11.10;73.10;;;12.43;37.64;102020.09;4896368;28;130488;-55
2022/03/10 05:43:37;;;;;;;7.83;5.73;;;11.20;72.90;;;12.52;37.37;102017.25;4898792;28;99898;-58
2022/03/10 05:46:04;;;;;;;12.87;7.80;;;11.40;73.80;;;12.58;37.26;102019.75;4895197;28;104546;-54
2022/03/10 05:48:30;;;;;;;15.03;9.93;;;11.50;71.00;;;12.64;37.28;102019.63;4897515;28;98681;-57
2022/03/10 05:50:56;;;;;;;14.10;8.73;;;11.50;71.90;;;12.67;36.98;102024.84;4888894;28;97474;-58
2022/03/10 05:53:22;;;;;;;21.67;11.47;;;11.60;71.40;;;12.69;36.98;102025.69;4890128;28;96760;-56
2022/03/10 05:55:47;;;;;;;9.90;6.97;;;11.60;70.60;;;12.61;37.21;102027.66;4893250;28;103239;-57
2022/03/10 05:58:13;;;;;;;6.70;6.00;;;11.40;71.20;;;12.60;37.26;102017.09;4879679;28;97533;-57
2022/03/10 06:00:41;;;;;;;7.27;6.47;;;11.30;73.80;;;12.62;37.22;102021.44;4896602;28;98111;-57
2022/03/10 06:03:15;;;;;;;10.73;8.00;;;11.40;72.10;;;12.58;37.35;102025.06;4895350;28;114905;-55
2022/03/10 06:05:41;;;;;;;9.77;8.37;;;11.30;71.70;;;12.53;37.41;102021.66;4898618;28;111101;-54
2022/03/10 06:08:07;;;;;;;14.30;9.70;;;11.20;71.00;;;12.47;37.50;102027.09;4890427;28;96544;-54
2022/03/10 06:10:33;;;;;;;11.70;9.80;;;11.10;71.50;;;12.40;37.65;102030.75;4894455;28;97993;-57
2022/03/10 06:12:58;;;;;;;14.07;9.70;;;11.00;71.80;;;12.34;37.32;102030.91;4895582;28;97853;-58
2022/03/10 06:15:24;;;;;;;9.33;8.20;;;10.90;70.90;;;12.30;37.93;102029.22;4890801;28;103287;-56
2022/03/10 06:17:50;;;;;;;12.70;10.67;;;10.80;72.50;;;12.23;38.17;102032.88;4888624;28;126738;-56
2022/03/10 06:20:16;;;;;;;14.87;11.10;;;10.70;72.60;;;12.18;37.91;102031.22;4880361;28;97067;-53
2022/03/10 06:22:42;;;;;;;12.10;9.37;;;10.60;72.00;;;12.10;38.03;102038.44;4886187;28;96995;-57
2022/03/10 06:25:09;;;;;;;9.30;8.30;;;10.60;72.60;;;12.05;38.46;102036.78;4890539;28;96995;-53
2022/03/10 06:27:36;;;;;;;15.53;12.87;;;10.50;73.40;;;11.99;38.30;102040.41;4854117;28;97626;-56
2022/03/10 06:30:04;;;;;;;9.20;6.80;;;10.40;73.70;;;11.99;38.68;102045.69;4835979;28;98199;-58
2022/03/10 06:32:30;;;;;;;8.83;6.47;;;10.40;75.10;;;12.00;38.61;102047.44;4895837;28;98085;-56
2022/03/10 06:34:59;;;;;;;15.50;9.30;;;10.60;75.80;;;12.00;38.42;102052.72;4891536;28;110919;-53
2022/03/10 06:37:26;;;;;;;21.90;12.77;;;10.60;74.00;;;11.98;38.13;102049.25;4894676;28;98158;-52
2022/03/10 06:39:52;;;;;;;20.57;12.50;;;10.50;72.50;;;11.96;38.10;102056.34;4871801;28;96947;-54
2022/03/10 06:42:20;;;;;;;14.90;9.50;;;10.50;73.00;;;11.93;38.35;102061.69;4881438;28;98031;-53
2022/03/10 06:44:46;;;;;;;11.43;8.47;;;10.50;74.20;;;11.94;38.38;102057.28;4871875;28;97315;-57
2022/03/10 06:47:14;;;;;;;12.60;10.37;;;10.50;75.20;;;11.93;38.29;102053.75;4878925;28;97664;-56
2022/03/10 06:49:40;;;;;;;10.33;8.50;;;10.50;73.70;;;11.89;38.59;102054.72;4895300;28;97108;-54
2022/03/10 06:52:11;;;;;;;21.80;11.63;;;10.50;74.50;;;11.89;38.43;102052.09;4891684;28;96855;-55
2022/03/10 06:54:38;;;;;;;12.77;8.17;;;10.40;73.80;;;11.89;38.41;102060.00;4892127;28;97325;-53
2022/03/10 06:57:05;;;;;;;13.80;9.80;;;10.50;74.80;;;11.91;38.35;102063.50;4881456;28;97463;-56
2022/03/10 06:59:31;;;;;;;9.73;7.27;;;10.50;75.00;;;11.87;38.65;102056.53;4895284;28;96972;-57
2022/03/10 07:01:57;;;;;;;8.33;7.33;;;10.50;75.30;;;11.92;38.48;102059.94;4872706;28;97389;-55
2022/03/10 07:04:23;;;;;;;14.20;10.37;;;10.60;75.30;;;11.98;38.51;102064.25;4904111;28;96639;-52
2022/03/10 07:06:48;;;;;;;10.70;7.40;;;10.60;73.70;;;11.99;38.40;102066.84;4854425;28;1182411;-56
2022/03/10 07:09:14;;;;;;;11.33;8.40;;;10.70;73.70;;;11.99;38.41;102060.69;4901643;28;96924;-52
2022/03/10 07:11:40;;;;;;;14.37;10.50;;;10.60;74.50;;;11.99;38.32;102066.84;4882794;28;96978;-53
2022/03/10 07:14:06;;;;;;;9.17;6.50;;;10.70;73.80;;;12.03;38.37;102063.25;4891458;28;97108;-53
2022/03/10 07:16:32;;;;;;;13.03;9.80;;;10.80;74.90;;;12.08;38.14;102064.03;4898620;28;121999;-55
2022/03/10 07:18:57;;;;;;;9.77;7.20;;;10.90;74.10;;;12.14;38.09;102063.03;4900400;28;99465;-55
2022/03/10 07:21:24;;;;;;;9.27;8.17;;;10.90;74.00;;;12.18;38.05;102065.59;4900264;28;97188;-54
2022/03/10 07:23:50;;;;;;;8.83;6.87;;;11.00;73.90;;;12.23;37.98;102064.63;4897281;28;97205;-52
2022/03/10 07:26:16;;;;;;;12.63;10.70;;;11.00;75.60;;;12.31;37.71;102063.59;4882959;28;96970;-57
2022/03/10 07:28:47;;;;;;;13.87;11.07;;;11.10;73.20;;;12.27;37.80;102061.03;4882910;28;98156;-56
2022/03/10 07:31:13;;;;;;;18.10;13.50;;;11.10;73.50;;;12.25;37.37;102063.69;4894475;28;98106;-52
2022/03/10 07:33:39;;;;;;;7.20;6.23;;;11.00;72.90;;;12.28;37.79;102068.03;4899752;28;97750;-57
2022/03/10 07:36:05;;;;;;;6.67;5.97;;;11.00;74.40;;;12.32;37.88;102060.03;4896401;28;116540;-54
2022/03/10 07:38:30;;;;;;;7.60;6.13;;;11.10;74.20;;;12.37;37.75;102073.16;4898199;28;127144;-53
2022/03/10 07:40:57;;;;;;;8.20;6.27;;;11.20;73.40;;;12.37;37.71;102073.16;4895080;28;118743;-54
2022/03/10 07:43:24;;;;;;;8.67;6.50;;;11.30;74.10;;;12.37;37.86;102063.44;4900655;28;97785;-52
2022/03/10 07:45:53;;;;;;;7.60;6.80;;;11.20;74.70;;;12.54;37.43;102064.88;4895761;28;100301;-50
2022/03/10 07:48:19;;;;;;;7.93;6.80;;;11.50;74.40;;;12.63;37.36;102070.84;4898376;28;98422;-50
2022/03/10 07:50:45;;;;;;;8.07;6.63;;;11.70;73.80;;;12.82;36.89;102069.53;4895530;28;96760;-53
2022/03/10 07:53:11;;;;;;;7.47;5.63;;;12.20;72.20;;;13.10;36.30;102076.81;4898303;28;97394;-54
2022/03/10 07:55:36;;;;;;;8.53;6.60;;;12.50;72.80;;;13.32;35.91;102072.81;4903376;28;97939;-54
2022/03/10 07:58:02;;;;;;;7.13;6.20;;;12.90;70.80;;;13.46;35.87;102063.63;4894943;28;98521;-49
2022/03/10 08:00:28;;;;;;;10.07;7.77;;;13.20;68.90;;;13.56;35.57;102065.13;4898611;28;107107;-54
2022/03/10 08:02:54;;;;;;;7.30;5.70;;;13.20;67.10;;;13.70;35.42;102063.84;4894167;28;97321;-53
2022/03/10 08:05:25;;;;;;;6.27;5.63;;;13.40;70.40;;;13.86;35.17;102069.63;4903441;28;97386;-55
2022/03/10 08:07:51;;;;;;;11.87;9.23;;;13.60;69.20;;;13.89;35.04;102064.25;4890680;28;96915;-55
2022/03/10 08:10:17;;;;;;;9.03;7.90;;;13.60;64.90;;;13.82;34.99;102067.97;4881093;28;120942;-58
2022/03/10 08:12:43;;;;;;;9.27;6.63;;;13.30;66.40;;;13.78;35.37;102066.31;4896186;28;97187;-64
2022/03/10 08:15:09;;;;;;;18.23;13.13;;;13.10;68.30;;;13.61;34.17;102063.25;4900110;28;103326;-53
2022/03/10 08:17:36;;;;;;;7.17;6.10;;;12.80;65.10;;;13.51;35.62;102062.59;4898657;28;105214;-57
2022/03/10 08:20:02;;;;;;;18.37;14.40;;;12.70;69.50;;;13.45;34.57;102064.50;4895229;28;96990;-56
2022/03/10 08:22:28;;;;;;;7.10;6.03;;;12.70;66.90;;;13.51;35.76;102064.38;4895391;28;97461;-56
2022/03/10 08:24:54;;;;;;;7.20;5.90;;;12.70;70.60;;;13.64;35.48;102056.06;4874756;28;98388;-57
2022/03/10 08:27:20;;;;;;;11.63;9.23;;;13.00;71.10;;;13.72;35.14;102053.19;4897896;28;96754;-59
2022/03/10 08:29:47;;;;;;;11.90;9.10;;;13.20;65.90;;;13.73;35.12;102049.63;4894705;28;96655;-58
2022/03/10 08:32:13;;;;;;;7.13;5.83;;;13.20;65.30;;;13.76;35.46;102046.06;4881192;28;99944;-58
2022/03/10 08:34:39;;;;;;;16.03;12.67;;;13.10;68.80;;;13.86;34.21;102043.09;4882616;28;97382;-57
2022/03/10 08:37:05;;;;;;;7.37;6.00;;;13.30;66.20;;;13.91;34.77;102041.19;4894984;28;97091;-56
2022/03/10 08:39:32;;;;;;;6.93;6.00;;;13.50;68.40;;;14.13;34.62;102037.94;4898817;28;96794;-54
2022/03/10 08:41:59;;;;;;;7.17;5.83;;;13.90;67.50;;;14.33;34.50;102035.59;4894448;28;98369;-54
2022/03/10 08:44:25;;;;;;;21.80;15.60;;;14.20;68.40;;;14.39;30.28;102027.44;4897490;28;98908;-58
2022/03/10 08:46:51;;;;;;;11.03;8.50;;;14.40;60.60;;;14.42;33.55;102029.97;4896568;28;97793;-54
2022/03/10 08:49:17;;;;;;;10.00;8.73;;;14.30;63.70;;;14.63;33.72;102035.63;4882845;28;96785;-57
2022/03/10 08:51:44;;;;;;;13.77;10.90;;;14.60;66.10;;;14.56;30.25;102033.13;4889686;28;99278;-61
2022/03/10 08:54:12;;;;;;;14.07;10.33;;;14.40;59.70;;;14.63;32.85;102025.84;4877408;28;100287;-52
2022/03/10 08:56:38;;;;;;;10.47;8.13;;;14.50;62.50;;;14.70;33.37;102034.50;4896030;28;97974;-55
2022/03/10 08:59:05;;;;;;;6.13;5.50;;;14.60;64.30;;;14.78;33.20;102038.66;4894214;28;96812;-54
2022/03/10 09:01:31;;;;;;;15.93;12.67;;;14.70;65.50;;;14.87;30.31;102034.81;4897565;28;97132;-56
2022/03/10 09:03:57;;;;;;;7.50;6.47;;;14.90;59.20;;;14.99;33.15;102041.53;4892116;28;97507;-56
2022/03/10 09:06:23;;;;;;;14.30;11.67;;;15.00;63.70;;;15.05;31.48;102028.94;4893414;28;97328;-58
2022/03/10 09:08:49;;;;;;;7.43;6.23;;;15.10;60.30;;;15.14;33.10;102028.63;4892425;28;97074;-59
2022/03/10 09:11:16;;;;;;;12.30;9.17;;;15.20;64.90;;;15.20;32.18;102021.38;4895567;28;98787;-57
2022/03/10 09:13:48;;;;;;;9.47;7.30;;;15.30;60.00;;;15.22;32.32;102028.38;4893587;28;97561;-59
2022/03/10 09:16:19;;;;;;;7.13;6.30;;;15.30;62.10;;;15.30;32.59;102022.78;4878157;28;100809;-55
2022/03/10 09:18:45;;;;;;;14.43;11.67;;;15.40;64.00;;;15.32;30.55;102020.94;4893767;28;97725;-55
2022/03/10 09:21:13;;;;;;;11.80;9.00;;;15.40;59.40;;;15.31;32.33;102019.22;4896301;28;97241;-55
2022/03/10 09:23:39;;;;;;;11.20;9.23;;;15.40;61.40;;;15.32;32.36;102010.31;4897555;28;97292;-57
2022/03/10 09:26:05;;;;;;;8.03;7.23;;;15.40;61.60;;;15.34;32.45;102008.50;4896925;28;97240;-59
2022/03/10 09:28:31;;;;;;;8.50;7.10;;;15.50;64.50;;;15.38;32.49;102010.13;4894485;28;114456;-54
2022/03/10 09:30:56;;;;;;;8.57;7.07;;;15.60;64.40;;;15.34;32.45;102009.38;4895459;28;97017;-54
2022/03/10 09:33:23;;;;;;;13.47;9.50;;;15.70;63.40;;;15.43;30.79;102008.16;4896994;28;117672;-57
2022/03/10 09:35:50;;;;;;;11.10;9.07;;;15.70;61.00;;;15.52;31.59;102012.31;4893382;28;98317;-58
2022/03/10 09:38:16;;;;;;;13.90;11.63;;;15.80;61.60;;;15.60;31.37;102016.44;4897212;28;97151;-58
2022/03/10 09:40:42;;;;;;;9.03;6.70;;;15.80;60.20;;;15.51;32.14;102011.44;4898326;28;98056;-55
2022/03/10 09:43:10;;;;;;;10.77;8.93;;;15.70;62.10;;;15.14;29.21;102007.34;4878225;28;104086;-51
2022/03/10 09:45:37;;;;;;;11.53;9.90;;;15.50;58.60;;;15.10;31.52;102005.72;4897591;28;97897;-50
2022/03/10 09:48:03;;;;;;;14.47;11.90;;;15.40;61.00;;;15.33;31.21;102004.06;4896628;28;96960;-49
2022/03/10 09:50:29;;;;;;;14.60;11.10;;;15.50;60.30;;;15.41;31.35;101999.38;4897739;28;97587;-50
2022/03/10 09:52:55;;;;;;;14.50;11.63;;;15.60;61.20;;;15.48;30.22;102000.91;4894724;28;98715;-49
2022/03/10 09:55:21;;;;;;;11.70;10.10;;;15.70;59.00;;;15.38;30.94;101994.16;4896688;28;97102;-49
2022/03/10 09:57:49;;;;;;;12.63;10.27;;;15.70;60.60;;;15.48;30.52;101991.16;4891958;28;97048;-51
2022/03/10 10:00:17;;;;;;;13.50;10.37;;;15.70;60.10;;;15.53;30.68;101988.31;4896363;28;97221;-51
2022/03/10 10:02:45;;;;;;;11.50;9.63;;;15.80;60.30;;;15.58;30.88;101999.66;4893408;28;97415;-56
2022/03/10 10:05:25;;;;;;;14.23;11.10;;;15.80;60.20;;;15.65;28.04;102006.53;4892543;28;99935;-54
2022/03/10 10:08:14;;;;;;;11.50;9.30;;;15.80;56.90;;;15.65;30.41;102003.88;4875523;28;96899;-51
2022/03/10 10:10:45;;;;;;;10.23;8.70;;;15.90;59.80;;;15.60;30.95;101989.84;4880444;28;102952;-53
2022/03/10 10:13:30;;;;;;;16.73;11.83;;;15.90;60.80;;;15.67;30.13;101986.06;4892439;28;101745;-49
2022/03/10 10:16:09;;;;;;;11.40;10.17;;;15.80;58.40;;;15.70;30.87;101977.97;4892914;28;98262;-47